sensor_id;sensor_type;location;lat;lon;timestamp;pressure;altitude;pressure_sealevel;temperature;humidity
64886;BME280;51514;52.206;5.114;2023-04-02T00:04:43;101340.03;;;7.72;94.89
64886;BME280;51514;52.206;5.114;2023-04-02T00:07:25;101345.31;;;7.62;94.57
64886;BME280;51514;52.206;5.114;2023-04-02T00:09:56;101338.38;;;7.60;94.78
64886;BME280;51514;52.206;5.114;2023-04-02T00:12:21;101348.25;;;7.59;94.61
64886;BME280;51514;52.206;5.114;2023-04-02T00:14:52;101343.50;;;7.63;95.54
64886;BME280;51514;52.206;5.114;2023-04-02T00:17:19;101342.84;;;7.70;95.22
64886;BME280;51514;52.206;5.114;2023-04-02T00:22:23;101360.03;;;7.68;94.41
64886;BME280;51514;52.206;5.114;2023-04-02T00:24:52;101358.97;;;7.59;93.75
64886;BME280;51514;52.206;5.114;2023-04-02T00:27:18;101363.16;;;7.52;94.07
64886;BME280;51514;52.206;5.114;2023-04-02T00:29:50;101369.75;;;7.48;94.30
64886;BME280;51514;52.206;5.114;2023-04-02T00:32:20;101378.41;;;7.52;94.53
64886;BME280;51514;52.206;5.114;2023-04-02T00:34:46;101381.44;;;7.47;93.89
64886;BME280;51514;52.206;5.114;2023-04-02T00:37:23;101382.47;;;7.46;93.80
64886;BME280;51514;52.206;5.114;2023-04-02T00:40:03;101385.59;;;7.51;94.15
64886;BME280;51514;52.206;5.114;2023-04-02T00:42:33;101387.31;;;7.52;93.17
64886;BME280;51514;52.206;5.114;2023-04-02T00:45:00;101395.13;;;7.55;94.54
64886;BME280;51514;52.206;5.114;2023-04-02T00:47:31;101400.94;;;7.60;93.75
64886;BME280;51514;52.206;5.114;2023-04-02T00:50:03;101401.69;;;7.62;93.42
64886;BME280;51514;52.206;5.114;2023-04-02T00:52:31;101404.72;;;7.58;93.05
64886;BME280;51514;52.206;5.114;2023-04-02T00:55:20;101412.94;;;7.45;92.47
64886;BME280;51514;52.206;5.114;2023-04-02T00:57:47;101421.34;;;7.41;93.03
64886;BME280;51514;52.206;5.114;2023-04-02T01:00:32;101428.66;;;7.39;92.96
64886;BME280;51514;52.206;5.114;2023-04-02T01:05:44;101439.50;;;7.48;92.92
64886;BME280;51514;52.206;5.114;2023-04-02T01:10:56;101432.81;;;7.43;92.42
64886;BME280;51514;52.206;5.114;2023-04-02T01:16:42;101452.69;;;7.40;92.34
64886;BME280;51514;52.206;5.114;2023-04-02T01:25:00;101454.66;;;7.27;91.61
64886;BME280;51514;52.206;5.114;2023-04-02T01:27:54;101462.22;;;7.33;92.44
64886;BME280;51514;52.206;5.114;2023-04-02T01:30:22;101462.47;;;7.30;91.63
64886;BME280;51514;52.206;5.114;2023-04-02T01:32:48;101466.97;;;7.29;91.25
64886;BME280;51514;52.206;5.114;2023-04-02T01:35:14;101468.78;;;7.29;91.96
64886;BME280;51514;52.206;5.114;2023-04-02T01:37:50;101475.00;;;7.29;91.51
64886;BME280;51514;52.206;5.114;2023-04-02T01:43:24;101482.72;;;7.23;91.79
64886;BME280;51514;52.206;5.114;2023-04-02T01:45:56;101492.69;;;7.21;91.19
64886;BME280;51514;52.206;5.114;2023-04-02T01:48:24;101505.25;;;7.20;91.41
64886;BME280;51514;52.206;5.114;2023-04-02T01:50:55;101500.50;;;7.13;90.42
64886;BME280;51514;52.206;5.114;2023-04-02T01:53:23;101503.88;;;7.04;90.46
64886;BME280;51514;52.206;5.114;2023-04-02T01:55:53;101507.78;;;7.00;90.62
64886;BME280;51514;52.206;5.114;2023-04-02T01:58:21;101512.19;;;7.01;90.87
64886;BME280;51514;52.206;5.114;2023-04-02T02:00:53;101520.94;;;6.91;90.70
64886;BME280;51514;52.206;5.114;2023-04-02T02:03:21;101522.78;;;6.91;91.46
64886;BME280;51514;52.206;5.114;2023-04-02T02:05:47;101520.78;;;6.93;91.42
64886;BME280;51514;52.206;5.114;2023-04-02T02:09:18;101518.25;;;6.91;91.10
64886;BME280;51514;52.206;5.114;2023-04-02T02:11:20;101529.09;;;6.90;91.18
64886;BME280;51514;52.206;5.114;2023-04-02T02:13:53;101541.38;;;6.92;90.41
64886;BME280;51514;52.206;5.114;2023-04-02T02:16:19;101544.31;;;6.89;90.81
64886;BME280;51514;52.206;5.114;2023-04-02T02:18:48;101551.41;;;6.90;90.69
64886;BME280;51514;52.206;5.114;2023-04-02T02:21:18;101550.78;;;6.87;89.78
64886;BME280;51514;52.206;5.114;2023-04-02T02:23:48;101559.44;;;6.90;90.53
64886;BME280;51514;52.206;5.114;2023-04-02T02:26:13;101563.84;;;6.91;90.42
64886;BME280;51514;52.206;5.114;2023-04-02T02:28:41;101563.84;;;6.91;90.36
64886;BME280;51514;52.206;5.114;2023-04-02T02:31:16;101570.97;;;6.80;89.28
64886;BME280;51514;52.206;5.114;2023-04-02T02:33:51;101574.97;;;6.74;90.12
64886;BME280;51514;52.206;5.114;2023-04-02T02:36:30;101576.69;;;6.75;89.97
64886;BME280;51514;52.206;5.114;2023-04-02T02:39:28;101581.88;;;6.66;89.24
64886;BME280;51514;52.206;5.114;2023-04-02T02:42:01;101586.38;;;6.65;90.71
64886;BME280;51514;52.206;5.114;2023-04-02T02:44:32;101596.13;;;6.66;90.03
64886;BME280;51514;52.206;5.114;2023-04-02T02:47:00;101606.22;;;6.63;89.15
64886;BME280;51514;52.206;5.114;2023-04-02T02:49:32;101603.28;;;6.54;89.67
64886;BME280;51514;52.206;5.114;2023-04-02T02:54:37;101601.84;;;6.38;89.05
64886;BME280;51514;52.206;5.114;2023-04-02T02:57:08;101615.00;;;6.41;89.54
64886;BME280;51514;52.206;5.114;2023-04-02T02:59:34;101623.66;;;6.44;90.24
64886;BME280;51514;52.206;5.114;2023-04-02T03:02:01;101619.31;;;6.31;89.43
64886;BME280;51514;52.206;5.114;2023-04-02T03:04:27;101621.81;;;6.21;89.06
64886;BME280;51514;52.206;5.114;2023-04-02T03:06:56;101633.38;;;6.21;89.76
64886;BME280;51514;52.206;5.114;2023-04-02T03:09:44;101634.78;;;6.27;90.37
64886;BME280;51514;52.206;5.114;2023-04-02T03:12:27;101636.59;;;6.27;90.09
64886;BME280;51514;52.206;5.114;2023-04-02T03:15:14;101646.38;;;6.15;88.66
64886;BME280;51514;52.206;5.114;2023-04-02T03:23:07;101667.06;;;6.00;91.16
64886;BME280;51514;52.206;5.114;2023-04-02T03:25:41;101676.16;;;5.98;89.86
64886;BME280;51514;52.206;5.114;2023-04-02T03:28:14;101680.25;;;5.91;89.78
64886;BME280;51514;52.206;5.114;2023-04-02T03:30:48;101701.22;;;5.84;90.50
64886;BME280;51514;52.206;5.114;2023-04-02T03:33:32;101698.94;;;5.78;91.06
64886;BME280;51514;52.206;5.114;2023-04-02T03:36:29;101700.75;;;5.77;91.23
64886;BME280;51514;52.206;5.114;2023-04-02T03:39:08;101708.13;;;5.74;91.45
64886;BME280;51514;52.206;5.114;2023-04-02T03:41:38;101716.50;;;5.82;90.97
64886;BME280;51514;52.206;5.114;2023-04-02T03:44:11;101722.63;;;5.84;90.07
64886;BME280;51514;52.206;5.114;2023-04-02T03:46:45;101727.41;;;5.79;88.52
64886;BME280;51514;52.206;5.114;2023-04-02T03:52:01;101741.41;;;5.57;90.03
64886;BME280;51514;52.206;5.114;2023-04-02T03:54:28;101742.41;;;5.69;90.21
64886;BME280;51514;52.206;5.114;2023-04-02T03:56:54;101755.44;;;5.73;89.61
64886;BME280;51514;52.206;5.114;2023-04-02T03:59:38;101754.16;;;5.66;88.55
64886;BME280;51514;52.206;5.114;2023-04-02T04:04:39;101762.44;;;5.36;88.93
64886;BME280;51514;52.206;5.114;2023-04-02T04:07:10;101772.97;;;5.52;89.68
64886;BME280;51514;52.206;5.114;2023-04-02T04:09:36;101776.84;;;5.61;89.16
64886;BME280;51514;52.206;5.114;2023-04-02T04:12:41;101769.16;;;5.69;88.09
64886;BME280;51514;52.206;5.114;2023-04-02T04:17:52;101788.59;;;5.58;87.65
64886;BME280;51514;52.206;5.114;2023-04-02T04:20:22;101794.94;;;5.70;88.28
64886;BME280;51514;52.206;5.114;2023-04-02T04:22:49;101806.75;;;5.80;88.67
64886;BME280;51514;52.206;5.114;2023-04-02T04:25:25;101810.47;;;5.77;87.93
64886;BME280;51514;52.206;5.114;2023-04-02T04:28:18;101814.97;;;5.77;86.89
64886;BME280;51514;52.206;5.114;2023-04-02T04:30:58;101820.31;;;5.77;86.66
64886;BME280;51514;52.206;5.114;2023-04-02T04:33:40;101826.00;;;5.72;86.57
64886;BME280;51514;52.206;5.114;2023-04-02T04:36:20;101824.56;;;5.67;86.10
64886;BME280;51514;52.206;5.114;2023-04-02T04:38:54;101833.91;;;5.74;86.31
64886;BME280;51514;52.206;5.114;2023-04-02T04:41:27;101845.69;;;5.71;86.14
64886;BME280;51514;52.206;5.114;2023-04-02T04:49:34;101853.72;;;5.44;85.47
64886;BME280;51514;52.206;5.114;2023-04-02T04:54:45;101868.81;;;5.45;86.51
64886;BME280;51514;52.206;5.114;2023-04-02T04:57:32;101882.69;;;5.38;84.74
64886;BME280;51514;52.206;5.114;2023-04-02T05:00:12;101885.28;;;5.25;84.11
64886;BME280;51514;52.206;5.114;2023-04-02T05:02:50;101891.41;;;5.27;84.29
64886;BME280;51514;52.206;5.114;2023-04-02T05:05:23;101901.75;;;5.19;83.49
64886;BME280;51514;52.206;5.114;2023-04-02T05:07:57;101907.28;;;4.88;81.35
64886;BME280;51514;52.206;5.114;2023-04-02T05:10:36;101902.44;;;4.80;81.44
64886;BME280;51514;52.206;5.114;2023-04-02T05:13:13;101914.16;;;4.77;83.17
64886;BME280;51514;52.206;5.114;2023-04-02T05:15:49;101917.41;;;4.83;83.85
64886;BME280;51514;52.206;5.114;2023-04-02T05:18:22;101919.03;;;4.71;82.45
64886;BME280;51514;52.206;5.114;2023-04-02T05:21:02;101924.88;;;4.63;82.05
64886;BME280;51514;52.206;5.114;2023-04-02T05:26:14;101939.09;;;4.64;81.65
64886;BME280;51514;52.206;5.114;2023-04-02T05:28:54;101936.69;;;4.59;82.38
64886;BME280;51514;52.206;5.114;2023-04-02T05:31:28;101947.63;;;4.55;81.49
64886;BME280;51514;52.206;5.114;2023-04-02T05:33:55;101957.47;;;4.54;82.21
64886;BME280;51514;52.206;5.114;2023-04-02T05:36:26;101961.84;;;4.55;82.40
64886;BME280;51514;52.206;5.114;2023-04-02T05:38:54;101960.41;;;4.50;82.12
64886;BME280;51514;52.206;5.114;2023-04-02T05:41:24;101967.34;;;4.38;81.57
64886;BME280;51514;52.206;5.114;2023-04-02T05:43:58;101975.34;;;4.38;82.08
64886;BME280;51514;52.206;5.114;2023-04-02T05:46:30;101982.56;;;4.22;82.02
64886;BME280;51514;52.206;5.114;2023-04-02T05:48:58;101989.34;;;4.27;82.63
64886;BME280;51514;52.206;5.114;2023-04-02T05:51:34;101996.31;;;4.30;83.08
64886;BME280;51514;52.206;5.114;2023-04-02T05:54:03;102002.44;;;4.32;82.61
64886;BME280;51514;52.206;5.114;2023-04-02T05:56:52;102010.69;;;4.27;82.42
64886;BME280;51514;52.206;5.114;2023-04-02T05:59:27;102017.28;;;4.22;81.94
64886;BME280;51514;52.206;5.114;2023-04-02T06:01:59;102020.34;;;4.30;82.57
64886;BME280;51514;52.206;5.114;2023-04-02T06:04:52;102032.53;;;4.34;82.48
64886;BME280;51514;52.206;5.114;2023-04-02T06:07:30;102039.69;;;4.33;82.09
64886;BME280;51514;52.206;5.114;2023-04-02T06:10:08;102049.56;;;4.17;81.63
64886;BME280;51514;52.206;5.114;2023-04-02T06:12:42;102058.59;;;4.15;81.52
64886;BME280;51514;52.206;5.114;2023-04-02T06:15:17;102063.06;;;4.14;81.63
64886;BME280;51514;52.206;5.114;2023-04-02T06:18:04;102068.25;;;4.01;80.55
64886;BME280;51514;52.206;5.114;2023-04-02T06:20:30;102074.78;;;4.12;82.10
64886;BME280;51514;52.206;5.114;2023-04-02T06:23:03;102081.09;;;4.11;81.47
64886;BME280;51514;52.206;5.114;2023-04-02T06:25:43;102079.78;;;4.18;82.08
64886;BME280;51514;52.206;5.114;2023-04-02T06:28:20;102095.25;;;4.11;81.43
64886;BME280;51514;52.206;5.114;2023-04-02T06:30:52;102096.56;;;4.04;81.14
64886;BME280;51514;52.206;5.114;2023-04-02T06:33:18;102107.59;;;3.98;80.56
64886;BME280;51514;52.206;5.114;2023-04-02T06:35:44;102111.66;;;3.89;81.10
64886;BME280;51514;52.206;5.114;2023-04-02T06:38:23;102115.56;;;3.82;81.42
64886;BME280;51514;52.206;5.114;2023-04-02T06:40:52;102124.88;;;3.91;82.69
64886;BME280;51514;52.206;5.114;2023-04-02T06:43:30;102141.94;;;3.88;81.67
64886;BME280;51514;52.206;5.114;2023-04-02T06:46:12;102130.84;;;3.96;82.69
64886;BME280;51514;52.206;5.114;2023-04-02T06:48:41;102141.41;;;3.97;82.45
64886;BME280;51514;52.206;5.114;2023-04-02T06:51:10;102146.25;;;4.07;82.72
64886;BME280;51514;52.206;5.114;2023-04-02T06:53:44;102154.09;;;4.10;83.35
64886;BME280;51514;52.206;5.114;2023-04-02T06:56:39;102157.78;;;4.07;83.08
64886;BME280;51514;52.206;5.114;2023-04-02T06:59:07;102161.91;;;4.13;83.77
64886;BME280;51514;52.206;5.114;2023-04-02T07:01:37;102167.25;;;4.13;83.48
64886;BME280;51514;52.206;5.114;2023-04-02T07:04:04;102173.53;;;4.12;83.08
64886;BME280;51514;52.206;5.114;2023-04-02T07:06:30;102168.97;;;4.14;83.14
64886;BME280;51514;52.206;5.114;2023-04-02T07:08:56;102174.75;;;4.22;83.04
64886;BME280;51514;52.206;5.114;2023-04-02T07:11:21;102182.59;;;4.25;83.02
64886;BME280;51514;52.206;5.114;2023-04-02T07:13:47;102185.06;;;4.12;82.48
64886;BME280;51514;52.206;5.114;2023-04-02T07:16:15;102190.16;;;4.17;82.62
64886;BME280;51514;52.206;5.114;2023-04-02T07:18:41;102201.47;;;4.22;82.85
64886;BME280;51514;52.206;5.114;2023-04-02T07:21:07;102205.66;;;4.26;82.78
64886;BME280;51514;52.206;5.114;2023-04-02T07:23:32;102210.50;;;4.35;83.03
64886;BME280;51514;52.206;5.114;2023-04-02T07:25:58;102215.50;;;4.41;82.62
64886;BME280;51514;52.206;5.114;2023-04-02T07:28:24;102214.88;;;4.36;82.61
64886;BME280;51514;52.206;5.114;2023-04-02T07:30:50;102216.88;;;4.32;81.74
64886;BME280;51514;52.206;5.114;2023-04-02T07:33:18;102220.50;;;4.31;81.69
64886;BME280;51514;52.206;5.114;2023-04-02T07:35:44;102229.81;;;4.40;81.75
64886;BME280;51514;52.206;5.114;2023-04-02T07:38:10;102236.66;;;4.44;81.68
64886;BME280;51514;52.206;5.114;2023-04-02T07:40:36;102240.47;;;4.40;80.53
64886;BME280;51514;52.206;5.114;2023-04-02T07:43:02;102248.06;;;4.32;80.28
64886;BME280;51514;52.206;5.114;2023-04-02T07:45:27;102244.94;;;4.24;81.52
64886;BME280;51514;52.206;5.114;2023-04-02T07:47:53;102255.88;;;4.19;81.05
64886;BME280;51514;52.206;5.114;2023-04-02T07:50:18;102260.59;;;4.14;81.46
64886;BME280;51514;52.206;5.114;2023-04-02T07:52:44;102263.63;;;3.91;80.54
64886;BME280;51514;52.206;5.114;2023-04-02T07:55:12;102264.66;;;3.88;81.67
64886;BME280;51514;52.206;5.114;2023-04-02T07:57:39;102256.03;;;3.83;81.45
64886;BME280;51514;52.206;5.114;2023-04-02T08:00:08;102267.03;;;3.77;81.35
64886;BME280;51514;52.206;5.114;2023-04-02T08:02:34;102264.03;;;3.83;81.53
64886;BME280;51514;52.206;5.114;2023-04-02T08:04:59;102264.66;;;3.88;81.41
64886;BME280;51514;52.206;5.114;2023-04-02T08:07:26;102273.41;;;3.90;80.71
64886;BME280;51514;52.206;5.114;2023-04-02T08:09:51;102275.78;;;3.79;81.14
64886;BME280;51514;52.206;5.114;2023-04-02T08:12:17;102283.78;;;3.96;81.62
64886;BME280;51514;52.206;5.114;2023-04-02T08:14:42;102287.25;;;3.98;81.10
64886;BME280;51514;52.206;5.114;2023-04-02T08:17:07;102295.19;;;4.16;82.15
64886;BME280;51514;52.206;5.114;2023-04-02T08:19:33;102296.50;;;4.24;81.45
64886;BME280;51514;52.206;5.114;2023-04-02T08:21:59;102310.34;;;4.15;79.15
64886;BME280;51514;52.206;5.114;2023-04-02T08:24:24;102297.91;;;3.98;79.20
64886;BME280;51514;52.206;5.114;2023-04-02T08:26:49;102316.41;;;4.01;79.31
64886;BME280;51514;52.206;5.114;2023-04-02T08:29:19;102322.88;;;3.97;78.91
64886;BME280;51514;52.206;5.114;2023-04-02T08:31:45;102333.47;;;3.82;79.51
64886;BME280;51514;52.206;5.114;2023-04-02T08:34:11;102330.88;;;3.80;78.68
64886;BME280;51514;52.206;5.114;2023-04-02T08:36:38;102330.88;;;3.80;78.38
64886;BME280;51514;52.206;5.114;2023-04-02T08:39:06;102336.59;;;3.90;78.12
64886;BME280;51514;52.206;5.114;2023-04-02T08:41:44;102342.22;;;4.18;79.93
64886;BME280;51514;52.206;5.114;2023-04-02T08:46:48;102339.22;;;4.42;77.73
64886;BME280;51514;52.206;5.114;2023-04-02T08:49:58;102341.94;;;4.40;76.06
64886;BME280;51514;52.206;5.114;2023-04-02T08:52:29;102352.63;;;4.40;76.62
64886;BME280;51514;52.206;5.114;2023-04-02T08:54:55;102362.22;;;4.27;75.10
64886;BME280;51514;52.206;5.114;2023-04-02T08:57:31;102365.63;;;4.30;74.52
64886;BME280;51514;52.206;5.114;2023-04-02T09:02:52;102375.59;;;3.75;75.92
64886;BME280;51514;52.206;5.114;2023-04-02T09:05:27;102384.22;;;3.80;75.88
64886;BME280;51514;52.206;5.114;2023-04-02T09:07:56;102385.97;;;4.16;76.47
64886;BME280;51514;52.206;5.114;2023-04-02T09:10:29;102390.03;;;4.40;72.64
64886;BME280;51514;52.206;5.114;2023-04-02T09:12:56;102389.16;;;4.72;73.24
64886;BME280;51514;52.206;5.114;2023-04-02T09:15:32;102388.66;;;5.13;72.37
64886;BME280;51514;52.206;5.114;2023-04-02T09:18:18;102403.44;;;5.52;73.01
64886;BME280;51514;52.206;5.114;2023-04-02T09:20:44;102406.94;;;5.68;72.12
64886;BME280;51514;52.206;5.114;2023-04-02T09:25:45;102405.41;;;6.23;71.96
64886;BME280;51514;52.206;5.114;2023-04-02T09:28:11;102395.59;;;6.67;71.57
64886;BME280;51514;52.206;5.114;2023-04-02T09:30:53;102401.25;;;6.90;68.68
64886;BME280;51514;52.206;5.114;2023-04-02T09:33:43;102405.94;;;7.42;69.75
64886;BME280;51514;52.206;5.114;2023-04-02T09:36:31;102407.50;;;7.59;65.56
64886;BME280;51514;52.206;5.114;2023-04-02T09:41:27;102418.66;;;7.80;66.19
64886;BME280;51514;52.206;5.114;2023-04-02T09:44:26;102422.66;;;7.33;62.50
64886;BME280;51514;52.206;5.114;2023-04-02T09:46:55;102422.91;;;7.69;66.35
64886;BME280;51514;52.206;5.114;2023-04-02T09:49:25;102424.91;;;7.93;64.85
64886;BME280;51514;52.206;5.114;2023-04-02T09:52:06;102429.38;;;8.06;64.28
64886;BME280;51514;52.206;5.114;2023-04-02T09:54:31;102432.34;;;8.02;61.65
64886;BME280;51514;52.206;5.114;2023-04-02T09:56:59;102438.56;;;7.90;61.40
64886;BME280;51514;52.206;5.114;2023-04-02T09:59:26;102441.94;;;8.06;62.76
64886;BME280;51514;52.206;5.114;2023-04-02T10:07:01;102435.69;;;7.66;61.19
64886;BME280;51514;52.206;5.114;2023-04-02T10:09:33;102445.53;;;7.39;60.63
64886;BME280;51514;52.206;5.114;2023-04-02T10:12:02;102442.66;;;7.42;62.72
64886;BME280;51514;52.206;5.114;2023-04-02T10:14:32;102448.88;;;7.42;60.99
64886;BME280;51514;52.206;5.114;2023-04-02T10:19:34;102449.56;;;7.73;64.93
64886;BME280;51514;52.206;5.114;2023-04-02T10:22:04;102443.28;;;8.26;65.82
64886;BME280;51514;52.206;5.114;2023-04-02T10:24:31;102456.59;;;8.54;66.00
64886;BME280;51514;52.206;5.114;2023-04-02T10:27:06;102462.91;;;8.66;61.49
64886;BME280;51514;52.206;5.114;2023-04-02T10:29:53;102465.41;;;8.82;61.44
64886;BME280;51514;52.206;5.114;2023-04-02T10:37:59;102484.09;;;8.58;56.34
64886;BME280;51514;52.206;5.114;2023-04-02T10:40:38;102470.44;;;8.48;57.73
64886;BME280;51514;52.206;5.114;2023-04-02T10:45:54;102485.63;;;8.62;57.27
64886;BME280;51514;52.206;5.114;2023-04-02T10:48:31;102478.72;;;8.58;56.42
64886;BME280;51514;52.206;5.114;2023-04-02T10:53:59;102494.22;;;8.67;57.42
64886;BME280;51514;52.206;5.114;2023-04-02T10:56:27;102489.22;;;8.35;57.89
64886;BME280;51514;52.206;5.114;2023-04-02T10:58:57;102485.38;;;8.39;59.49
64886;BME280;51514;52.206;5.114;2023-04-02T11:01:28;102483.06;;;8.73;58.83
64886;BME280;51514;52.206;5.114;2023-04-02T11:03:58;102496.16;;;9.03;59.14
64886;BME280;51514;52.206;5.114;2023-04-02T11:06:39;102484.13;;;9.08;59.87
64886;BME280;51514;52.206;5.114;2023-04-02T11:09:20;102494.06;;;9.44;58.86
64886;BME280;51514;52.206;5.114;2023-04-02T11:11:50;102502.97;;;9.58;57.65
64886;BME280;51514;52.206;5.114;2023-04-02T11:14:24;102499.88;;;9.51;57.40
64886;BME280;51514;52.206;5.114;2023-04-02T11:16:52;102508.81;;;9.51;59.28
64886;BME280;51514;52.206;5.114;2023-04-02T11:21:46;102510.41;;;9.54;56.66
64886;BME280;51514;52.206;5.114;2023-04-02T11:29:43;102535.69;;;9.64;53.54
64886;BME280;51514;52.206;5.114;2023-04-02T11:50:38;102541.38;;;10.21;55.46
64886;BME280;51514;52.206;5.114;2023-04-02T11:55:44;102558.47;;;9.60;53.19
64886;BME280;51514;52.206;5.114;2023-04-02T12:11:31;102561.75;;;9.76;54.90
64886;BME280;51514;52.206;5.114;2023-04-02T12:13:58;102553.25;;;10.06;57.79
64886;BME280;51514;52.206;5.114;2023-04-02T12:16:24;102556.50;;;10.35;56.32
64886;BME280;51514;52.206;5.114;2023-04-02T12:18:55;102552.25;;;10.20;55.43
64886;BME280;51514;52.206;5.114;2023-04-02T12:21:27;102546.91;;;10.31;58.25
64886;BME280;51514;52.206;5.114;2023-04-02T12:23:56;102554.34;;;10.51;57.57
64886;BME280;51514;52.206;5.114;2023-04-02T12:28:50;102567.28;;;9.99;54.30
64886;BME280;51514;52.206;5.114;2023-04-02T12:31:16;102567.94;;;10.02;54.99
64886;BME280;51514;52.206;5.114;2023-04-02T12:33:44;102564.38;;;10.02;54.78
64886;BME280;51514;52.206;5.114;2023-04-02T12:41:29;102571.34;;;10.65;56.82
64886;BME280;51514;52.206;5.114;2023-04-02T12:44:00;102574.72;;;10.79;56.70
64886;BME280;51514;52.206;5.114;2023-04-02T12:46:28;102576.25;;;10.59;54.33
64886;BME280;51514;52.206;5.114;2023-04-02T12:49:01;102570.53;;;10.51;54.62
64886;BME280;51514;52.206;5.114;2023-04-02T12:51:28;102589.09;;;10.56;55.30
64886;BME280;51514;52.206;5.114;2023-04-02T12:53:53;102584.50;;;10.21;52.90
64886;BME280;51514;52.206;5.114;2023-04-02T12:56:20;102580.25;;;10.30;55.98
64886;BME280;51514;52.206;5.114;2023-04-02T12:58:54;102590.53;;;10.25;55.63
64886;BME280;51514;52.206;5.114;2023-04-02T13:01:22;102595.38;;;10.20;54.13
64886;BME280;51514;52.206;5.114;2023-04-02T13:06:27;102608.16;;;9.93;54.08
64886;BME280;51514;52.206;5.114;2023-04-02T13:08:54;102593.94;;;9.91;56.49
64886;BME280;51514;52.206;5.114;2023-04-02T13:11:20;102591.91;;;9.94;55.67
64886;BME280;51514;52.206;5.114;2023-04-02T13:13:47;102584.34;;;9.86;57.57
64886;BME280;51514;52.206;5.114;2023-04-02T13:18:43;102591.59;;;10.22;56.67
64886;BME280;51514;52.206;5.114;2023-04-02T13:23:41;102592.28;;;10.01;56.36
64886;BME280;51514;52.206;5.114;2023-04-02T13:26:20;102591.03;;;9.94;55.50
64886;BME280;51514;52.206;5.114;2023-04-02T13:29:09;102598.56;;;10.01;55.26
64886;BME280;51514;52.206;5.114;2023-04-02T13:31:41;102591.19;;;10.16;54.00
64886;BME280;51514;52.206;5.114;2023-04-02T13:34:06;102605.78;;;10.01;54.02
64886;BME280;51514;52.206;5.114;2023-04-02T13:36:31;102595.97;;;10.00;54.12
64886;BME280;51514;52.206;5.114;2023-04-02T13:38:57;102584.88;;;9.92;53.26
64886;BME280;51514;52.206;5.114;2023-04-02T13:41:29;102598.56;;;10.01;53.42
64886;BME280;51514;52.206;5.114;2023-04-02T13:43:57;102603.31;;;9.85;52.95
64886;BME280;51514;52.206;5.114;2023-04-02T13:46:27;102603.38;;;10.09;57.38
64886;BME280;51514;52.206;5.114;2023-04-02T13:48:53;102610.25;;;10.26;57.17
64886;BME280;51514;52.206;5.114;2023-04-02T13:51:22;102623.09;;;10.09;53.45
64886;BME280;51514;52.206;5.114;2023-04-02T13:53:57;102623.50;;;9.79;52.68
64886;BME280;51514;52.206;5.114;2023-04-02T13:56:23;102624.00;;;9.84;53.36
64886;BME280;51514;52.206;5.114;2023-04-02T13:58:50;102616.00;;;9.96;55.35
64886;BME280;51514;52.206;5.114;2023-04-02T14:01:17;102618.19;;;9.91;54.10
64886;BME280;51514;52.206;5.114;2023-04-02T14:03:43;102617.91;;;10.19;56.40
64886;BME280;51514;52.206;5.114;2023-04-02T14:06:26;102630.59;;;10.30;54.57
64886;BME280;51514;52.206;5.114;2023-04-02T14:11:53;102621.84;;;10.39;55.50
64886;BME280;51514;52.206;5.114;2023-04-02T14:19:49;102624.31;;;10.42;55.29
64886;BME280;51514;52.206;5.114;2023-04-02T14:25:17;102628.16;;;10.50;53.46
64886;BME280;51514;52.206;5.114;2023-04-02T14:35:53;102641.97;;;10.09;54.15
64886;BME280;51514;52.206;5.114;2023-04-02T14:41:11;102641.41;;;10.30;55.54
64886;BME280;51514;52.206;5.114;2023-04-02T14:43:50;102652.69;;;10.47;55.33
64886;BME280;51514;52.206;5.114;2023-04-02T14:46:17;102651.22;;;10.31;51.65
64886;BME280;51514;52.206;5.114;2023-04-02T14:51:40;102652.13;;;10.42;53.62
64886;BME280;51514;52.206;5.114;2023-04-02T14:57:09;102655.41;;;10.35;51.81
64886;BME280;51514;52.206;5.114;2023-04-02T15:00:01;102664.06;;;10.27;51.38
64886;BME280;51514;52.206;5.114;2023-04-02T15:05:41;102667.06;;;10.35;53.59
64886;BME280;51514;52.206;5.114;2023-04-02T15:08:11;102667.75;;;10.26;52.50
64886;BME280;51514;52.206;5.114;2023-04-02T15:13:17;102671.81;;;10.32;52.45
64886;BME280;51514;52.206;5.114;2023-04-02T15:15:54;102668.16;;;10.20;51.18
64886;BME280;51514;52.206;5.114;2023-04-02T15:18:21;102661.22;;;10.29;52.86
64886;BME280;51514;52.206;5.114;2023-04-02T15:23:52;102669.31;;;10.29;51.80
64886;BME280;51514;52.206;5.114;2023-04-02T15:26:23;102680.97;;;10.29;53.08
64886;BME280;51514;52.206;5.114;2023-04-02T15:31:45;102675.72;;;10.15;51.46
64886;BME280;51514;52.206;5.114;2023-04-02T15:34:29;102670.00;;;10.07;51.53
64886;BME280;51514;52.206;5.114;2023-04-02T15:37:24;102677.31;;;10.17;54.15
64886;BME280;51514;52.206;5.114;2023-04-02T15:42:30;102675.50;;;10.18;55.67
64886;BME280;51514;52.206;5.114;2023-04-02T15:45:16;102671.41;;;10.25;54.57
64886;BME280;51514;52.206;5.114;2023-04-02T15:58:53;102688.91;;;9.94;54.01
64886;BME280;51514;52.206;5.114;2023-04-02T16:01:50;102688.03;;;9.94;54.57
64886;BME280;51514;52.206;5.114;2023-04-02T16:07:22;102695.56;;;10.01;56.24
64886;BME280;51514;52.206;5.114;2023-04-02T16:10:08;102703.19;;;10.07;57.30
64886;BME280;51514;52.206;5.114;2023-04-02T16:12:38;102698.16;;;10.03;54.91
64886;BME280;51514;52.206;5.114;2023-04-02T16:15:37;102697.19;;;10.04;56.20
64886;BME280;51514;52.206;5.114;2023-04-02T16:18:09;102709.16;;;10.00;55.85
64886;BME280;51514;52.206;5.114;2023-04-02T16:20:43;102710.13;;;9.99;55.98
64886;BME280;51514;52.206;5.114;2023-04-02T16:23:16;102711.09;;;9.98;55.30
64886;BME280;51514;52.206;5.114;2023-04-02T16:25:57;102713.91;;;9.83;55.22
64886;BME280;51514;52.206;5.114;2023-04-02T16:28:32;102711.53;;;9.92;56.08
64886;BME280;51514;52.206;5.114;2023-04-02T16:31:18;102719.72;;;9.90;54.00
64886;BME280;51514;52.206;5.114;2023-04-02T16:37:10;102725.53;;;9.97;55.23
64886;BME280;51514;52.206;5.114;2023-04-02T16:45:05;102746.13;;;9.98;55.60
64886;BME280;51514;52.206;5.114;2023-04-02T16:48:00;102748.03;;;9.96;56.40